屋久島, 日本

2014年7月26日 10時02分 (GMT +0900)
Tanegashima (RJFG) 海拔 778 ft | 30.60 °N, 130.99 °E | Change Station

Current weather conditions updated 1 hour ago

Partly Cloudy
局部有雲
82 °F
感覺像 91 °F
8
風 變化 風 來自 西

今天比昨天 涼爽

今日
高 -- | 低 -- °F
--% 降水機率
昨天
高 -- | 低 -- °F
Precip. -- 英寸
5:31 AM 7:15 PM
殘月, 1% visible
氣壓 29.98 英寸
能見度 6.2 英里
多雲 少數 800 ft
高溫指數 91 °F
露點 77 °F
濕度 84%
降雨量 0.00 英寸
積雪深度 不適用。
紫外線 0 / 12
花粉 不適用。
空氣質素 不適用。
Flu Activity 不適用。
METAR RJFG 260000Z 27007KT 220V310 9999 FEW008 28/25 Q1015

More Conditions Fewer Conditions

氣壓 29.98 英寸
能見度 6.2 英里
多雲 少數 800 ft
高溫指數 91 °F
露點 77 °F
濕度 84%
降雨量 0.00 英寸
積雪深度 不適用。
紫外線 0 / 12
花粉 不適用。
空氣質素 不適用。
Flu Activity 不適用。
METAR RJFG 260000Z 27007KT 220V310 9999 FEW008 28/25 Q1015

More Conditions Fewer Conditions

10-Day Weather Forecast

Almanac

天文

Jul. 26, 2014 昇起 降落
實際時間 05:31 JST 19:15 JST
民用曙暮光 05:05 JST 19:42 JST
航海曙暮光 04:33 JST 20:13 JST
天文學微明 03:59 JST 20:47 JST
月亮 04:48 JST 18:32 JST
可見光的長度 14h 36m
白晝時間
13h 44m
Tomorrow will be 1m 13s shorter.
殘月, 1% of the Moon is Illuminated
7月 25
殘月
7月 26
8月 3
第一季
8月 10
滿月
8月 17
第四季

昨天之最

國家高溫 國家低溫

Community

WunderPhotos

Upload Photos

1,737,455 照片已上傳!

Nearby

積雪量

Not available.

地震活動

城市 距離 時間和日期
附近沒有最近發生的地震活動。
顯示的最小幅度是2.5。

沿海水溫

地點 溫度
無任何天氣監測站報告

附近的氣象站

無個人氣象站在這一領域。